Vines Loop, Louisiana
Current Conditions -  °F | °C
As of 11:56 PM on Wednesday 26 Nov 2014 (Local Time) from KAQV Reporting Station
Clear Clear  
Wind Chill: 45°   Ceiling: Unl
Heat Index: 45°   Visibility: 10mi
Dew Point: 40°   Wind: 3mph
Humidity: 82%   Direction: 350°N
Pressure: 30.31"   Gusts: NA
Location:  31.6945°N, 93.716°W
Report Text: KAQV 270556Z AUTO 35003KT 10SM CLR 07/04 A3031 RMK AO2 SLP264 T00720044 10122 20072 402110033 51022
Loading
Personal Weather Stations






























Interactive Weather Map New forecast layout! Learn more

10-Day Weather Forecast

Advertisements
Track Severe Weather on mobile